Time;durP1;ratioP1;P1;durP2;ratioP2;P2;SDS_P1;SDS_P2;PMS_P1;PMS_P2;Temp;Humidity;BMP_temperature;BMP_pressure;BME280_temperature;BME280_humidity;BME280_pressure;Samples;Min_cycle;Max_cycle;Signal;HPM_P1;HPM_P2
2023/10/22 00:00:31;;;;;;;1.20;0.70;;;22.10;97.10;;;;;;5021367;28;20458;-70
2023/10/22 00:02:58;;;;;;;2.83;0.70;;;22.00;97.00;;;;;;5018390;28;20466;-69
2023/10/22 00:05:25;;;;;;;0.90;0.70;;;22.10;97.10;;;;;;5018058;28;21006;-70
2023/10/22 00:07:51;;;;;;;1.87;0.67;;;22.10;97.10;;;;;;5021139;28;20488;-70
2023/10/22 00:10:19;;;;;;;0.90;0.60;;;22.10;97.10;;;;;;5023098;28;20461;-69
2023/10/22 00:12:46;;;;;;;1.00;0.80;;;22.00;97.00;;;;;;5018085;28;21028;-69
2023/10/22 00:15:14;;;;;;;1.40;0.80;;;22.00;97.00;;;;;;5019699;28;20477;-71
2023/10/22 00:17:41;;;;;;;2.30;0.77;;;22.10;97.10;;;;;;5019886;28;20494;-70
2023/10/22 00:20:09;;;;;;;1.00;0.80;;;22.00;97.10;;;;;;5020630;28;20597;-71
2023/10/22 00:22:36;;;;;;;1.70;1.00;;;22.00;97.10;;;;;;5020489;28;20542;-69
2023/10/22 00:25:03;;;;;;;0.93;0.63;;;22.00;97.10;;;;;;5020661;28;20469;-67
2023/10/22 00:27:32;;;;;;;0.90;0.70;;;22.00;97.10;;;;;;5016610;28;20465;-71
2023/10/22 00:29:59;;;;;;;1.10;0.70;;;21.90;97.00;;;;;;5018267;28;20651;-68
2023/10/22 00:32:26;;;;;;;1.60;0.93;;;22.00;97.10;;;;;;5020202;28;20674;-68
2023/10/22 00:34:53;;;;;;;1.20;0.77;;;22.00;97.10;;;;;;5020190;28;20557;-68
2023/10/22 00:37:20;;;;;;;1.83;0.80;;;22.00;97.10;;;;;;5020058;28;20902;-69
2023/10/22 00:39:46;;;;;;;1.30;0.70;;;22.00;97.10;;;;;;5021590;28;20458;-70
2023/10/22 00:42:13;;;;;;;1.90;0.80;;;22.00;97.10;;;;;;5018989;28;20454;-72
2023/10/22 00:44:41;;;;;;;1.10;0.80;;;21.90;97.10;;;;;;5017706;28;20458;-68
2023/10/22 00:47:14;;;;;;;1.20;0.70;;;21.90;97.10;;;;;;5020323;28;20854;-68
2023/10/22 00:49:40;;;;;;;1.27;0.90;;;21.90;97.10;;;;;;5020594;28;20462;-69
2023/10/22 00:52:08;;;;;;;1.10;0.80;;;21.90;97.10;;;;;;5020327;28;20466;-67
2023/10/22 00:54:36;;;;;;;1.20;0.67;;;22.00;97.20;;;;;;5021110;28;20466;-69
2023/10/22 00:57:03;;;;;;;2.30;0.97;;;21.90;97.10;;;;;;5018671;28;21539;-68
2023/10/22 00:59:30;;;;;;;1.33;0.80;;;21.90;97.10;;;;;;5022979;28;20462;-68
2023/10/22 01:01:58;;;;;;;1.63;0.70;;;21.90;97.10;;;;;;5029093;22;20501;-72
2023/10/22 01:04:26;;;;;;;3.00;0.93;;;21.80;97.10;;;;;;5001519;28;20939;-69
2023/10/22 01:06:53;;;;;;;1.13;0.70;;;21.90;97.20;;;;;;5002506;28;20455;-70
2023/10/22 01:09:20;;;;;;;1.00;0.77;;;21.80;97.10;;;;;;5000530;28;20466;-69
2023/10/22 01:12:00;;;;;;;1.20;1.00;;;21.80;97.20;;;;;;4997774;28;20841;-74
2023/10/22 01:14:27;;;;;;;1.00;0.70;;;21.80;97.10;;;;;;4998098;28;20505;-72
2023/10/22 01:16:53;;;;;;;1.33;0.70;;;21.80;97.10;;;;;;4998151;28;20486;-70
2023/10/22 01:19:21;;;;;;;1.10;0.70;;;21.80;97.20;;;;;;5001186;28;20451;-70
2023/10/22 01:21:48;;;;;;;1.77;0.90;;;21.90;97.20;;;;;;5000423;28;20845;-69
2023/10/22 01:24:16;;;;;;;1.07;0.70;;;21.90;97.20;;;;;;5000928;28;20460;-74
2023/10/22 01:26:43;;;;;;;1.00;0.70;;;21.80;97.20;;;;;;4999426;28;20470;-73
2023/10/22 01:29:11;;;;;;;1.43;0.77;;;21.80;97.20;;;;;;5001342;28;21374;-72
2023/10/22 01:31:38;;;;;;;1.53;0.70;;;21.80;97.30;;;;;;4999623;28;20565;-69
2023/10/22 01:34:05;;;;;;;1.03;0.60;;;21.80;97.20;;;;;;5001554;28;20467;-71
2023/10/22 01:36:31;;;;;;;0.90;0.70;;;21.80;97.30;;;;;;5000999;28;20482;-72
2023/10/22 01:38:58;;;;;;;1.83;0.73;;;21.80;97.30;;;;;;5004529;28;20463;-71
2023/10/22 01:41:26;;;;;;;1.03;0.77;;;21.80;97.30;;;;;;5002640;28;20468;-76
2023/10/22 01:43:53;;;;;;;1.00;0.80;;;21.80;97.30;;;;;;4996074;28;20567;-70
2023/10/22 01:46:20;;;;;;;1.90;1.00;;;21.70;97.30;;;;;;4991867;28;20470;-71
2023/10/22 01:48:47;;;;;;;1.00;0.70;;;21.80;97.30;;;;;;5001215;28;20961;-72
2023/10/22 01:51:14;;;;;;;1.00;0.77;;;21.70;97.30;;;;;;5004838;28;20455;-71
2023/10/22 01:53:42;;;;;;;1.10;0.70;;;21.70;97.50;;;;;;5002993;28;21183;-74
2023/10/22 01:56:09;;;;;;;1.00;0.70;;;21.70;97.40;;;;;;4996866;28;20484;-68
2023/10/22 01:58:37;;;;;;;1.20;0.90;;;21.80;97.30;;;;;;5000216;28;21003;-72
2023/10/22 02:01:04;;;;;;;0.90;0.60;;;21.70;97.40;;;;;;4998641;28;20463;-71
2023/10/22 02:03:34;;;;;;;0.90;0.67;;;21.70;97.30;;;;;;4998885;28;20476;-70
2023/10/22 02:06:00;;;;;;;1.00;0.80;;;21.70;97.30;;;;;;5004111;28;20467;-72
2023/10/22 02:08:27;;;;;;;0.93;0.67;;;21.70;97.30;;;;;;5004056;28;20906;-71
2023/10/22 02:10:54;;;;;;;1.00;0.73;;;21.70;97.40;;;;;;5003496;28;20970;-70
2023/10/22 02:13:20;;;;;;;1.30;0.70;;;21.60;97.40;;;;;;5002262;28;20459;-74
2023/10/22 02:15:48;;;;;;;0.90;0.70;;;21.70;97.40;;;;;;5003304;28;20483;-71
2023/10/22 02:18:16;;;;;;;0.90;0.60;;;21.80;97.50;;;;;;5001478;28;21097;-70
2023/10/22 02:20:55;;;;;;;1.10;0.70;;;21.60;97.40;;;;;;5003106;28;20460;-73
2023/10/22 02:23:22;;;;;;;1.83;0.70;;;21.60;97.40;;;;;;4999842;28;20600;-70
2023/10/22 02:25:50;;;;;;;0.80;0.60;;;21.60;97.40;;;;;;5000888;28;20465;-71
2023/10/22 02:28:17;;;;;;;1.10;0.77;;;21.60;97.40;;;;;;5003587;28;20486;-70
2023/10/22 02:30:44;;;;;;;0.93;0.67;;;21.60;97.40;;;;;;5000773;28;20979;-69
2023/10/22 02:33:12;;;;;;;1.30;0.80;;;21.60;97.40;;;;;;5002750;28;20459;-67
2023/10/22 02:35:40;;;;;;;0.90;0.60;;;21.60;97.50;;;;;;4999022;28;20509;-69
2023/10/22 02:38:07;;;;;;;0.90;0.60;;;21.60;97.40;;;;;;5000913;28;20528;-69
2023/10/22 02:40:35;;;;;;;1.10;0.80;;;21.60;97.40;;;;;;4998420;28;20482;-73
2023/10/22 02:43:03;;;;;;;1.00;0.67;;;21.60;97.50;;;;;;5000824;28;20475;-71
2023/10/22 02:45:30;;;;;;;1.20;0.90;;;21.60;97.50;;;;;;5000019;28;20454;-69
2023/10/22 02:47:57;;;;;;;1.43;0.70;;;21.60;97.50;;;;;;5001793;28;20988;-68
2023/10/22 02:50:26;;;;;;;1.20;0.80;;;21.60;97.50;;;;;;4999422;28;20455;-71
2023/10/22 02:52:53;;;;;;;1.07;0.70;;;21.60;97.50;;;;;;4996116;28;20461;-72
2023/10/22 02:55:20;;;;;;;1.10;0.80;;;21.50;97.40;;;;;;4997852;28;21074;-72
2023/10/22 02:57:47;;;;;;;1.00;0.70;;;21.50;97.50;;;;;;4997727;28;21494;-73
2023/10/22 03:00:15;;;;;;;1.30;0.60;;;21.50;97.50;;;;;;4994575;28;21518;-72
2023/10/22 03:02:41;;;;;;;1.10;0.90;;;21.50;97.50;;;;;;4999929;28;21453;-72
2023/10/22 03:05:09;;;;;;;0.90;0.60;;;21.50;97.50;;;;;;5003622;28;20460;-74
2023/10/22 03:07:37;;;;;;;1.00;0.70;;;21.50;97.60;;;;;;5001171;28;20495;-70
2023/10/22 03:10:04;;;;;;;1.17;0.70;;;21.50;97.60;;;;;;5001205;28;20469;-72
2023/10/22 03:12:31;;;;;;;1.10;0.80;;;21.50;97.60;;;;;;4998915;28;20461;-70
2023/10/22 03:14:58;;;;;;;1.27;0.80;;;21.50;97.50;;;;;;5001617;28;20962;-74
2023/10/22 03:17:25;;;;;;;1.23;0.83;;;21.50;97.60;;;;;;5000606;28;20537;-70
2023/10/22 03:19:51;;;;;;;1.40;0.70;;;21.50;97.60;;;;;;5000363;28;20504;-71
2023/10/22 03:22:19;;;;;;;1.10;0.70;;;21.50;97.60;;;;;;4998442;28;20470;-71
2023/10/22 03:24:50;;;;;;;0.90;0.67;;;21.50;97.60;;;;;;4999288;28;20216;-71
2023/10/22 03:27:17;;;;;;;1.27;0.80;;;21.50;97.60;;;;;;4999472;28;20852;-70
2023/10/22 03:29:44;;;;;;;1.10;0.80;;;21.40;97.50;;;;;;4996581;28;20461;-72
2023/10/22 03:32:11;;;;;;;0.87;0.60;;;21.50;97.60;;;;;;5000117;28;20463;-71
2023/10/22 03:34:37;;;;;;;1.63;0.70;;;21.40;97.50;;;;;;5001445;28;20462;-71
2023/10/22 03:37:05;;;;;;;0.90;0.63;;;21.60;97.70;;;;;;5000891;28;20486;-71
2023/10/22 03:39:32;;;;;;;1.33;0.70;;;21.40;97.60;;;;;;4999735;28;20990;-72
2023/10/22 03:42:00;;;;;;;1.00;0.70;;;21.40;97.60;;;;;;5001029;28;20460;-73
2023/10/22 03:44:27;;;;;;;0.97;0.70;;;21.40;97.60;;;;;;4999908;28;20470;-74
2023/10/22 03:46:53;;;;;;;1.20;0.87;;;21.40;97.60;;;;;;5001644;28;20469;-69
2023/10/22 03:49:20;;;;;;;0.90;0.60;;;21.40;97.60;;;;;;5003050;28;20536;-70
2023/10/22 03:51:47;;;;;;;0.90;0.60;;;21.40;97.70;;;;;;5001272;28;20455;-73
2023/10/22 03:54:14;;;;;;;0.90;0.60;;;21.40;97.70;;;;;;5003262;28;20459;-75
2023/10/22 03:56:40;;;;;;;1.10;0.73;;;21.40;97.70;;;;;;5000808;28;20479;-68
2023/10/22 03:59:09;;;;;;;1.00;0.70;;;21.40;97.70;;;;;;4998513;28;20467;-70
2023/10/22 04:01:35;;;;;;;1.00;0.60;;;21.40;97.70;;;;;;4996839;28;20474;-73
2023/10/22 04:04:02;;;;;;;1.03;0.60;;;21.40;97.70;;;;;;4997747;28;20473;-71
2023/10/22 04:06:31;;;;;;;1.00;0.70;;;21.40;97.70;;;;;;5002955;28;20816;-68
2023/10/22 04:08:57;;;;;;;1.30;1.10;;;21.40;97.70;;;;;;5001647;28;20462;-70
2023/10/22 04:11:24;;;;;;;0.90;0.60;;;21.40;97.70;;;;;;5003096;28;20473;-72
2023/10/22 04:13:51;;;;;;;1.03;0.70;;;21.40;97.70;;;;;;5005188;28;20461;-69
2023/10/22 04:16:19;;;;;;;1.10;0.60;;;21.40;97.70;;;;;;5000016;28;20477;-67
2023/10/22 04:18:46;;;;;;;1.00;0.80;;;21.30;97.70;;;;;;5003587;28;20936;-72
2023/10/22 04:21:13;;;;;;;0.80;0.60;;;21.40;97.70;;;;;;4999639;28;20513;-74
2023/10/22 04:23:40;;;;;;;0.90;0.70;;;21.40;97.80;;;;;;5004316;28;20463;-69
2023/10/22 04:26:12;;;;;;;0.90;0.60;;;21.40;97.80;;;;;;5001969;28;20453;-72
2023/10/22 04:28:39;;;;;;;1.13;0.80;;;21.40;97.80;;;;;;5004878;28;20450;-72
2023/10/22 04:31:05;;;;;;;1.07;0.70;;;21.30;97.80;;;;;;5000948;28;20906;-69
2023/10/22 04:33:35;;;;;;;1.00;0.80;;;21.30;97.70;;;;;;4999583;28;20467;-70
2023/10/22 04:36:02;;;;;;;0.90;0.60;;;21.40;97.80;;;;;;4999259;28;20204;-68
2023/10/22 04:38:29;;;;;;;1.00;0.70;;;21.30;97.80;;;;;;5001834;28;20204;-71
2023/10/22 04:40:56;;;;;;;1.30;0.87;;;21.30;97.80;;;;;;5003547;28;20914;-68
2023/10/22 04:43:23;;;;;;;1.10;0.73;;;21.30;97.80;;;;;;5002104;28;20477;-71
2023/10/22 04:45:50;;;;;;;1.00;0.80;;;21.30;97.80;;;;;;4996443;28;20463;-68
2023/10/22 04:48:17;;;;;;;1.10;0.70;;;21.30;97.80;;;;;;5000433;28;20466;-70
2023/10/22 04:50:45;;;;;;;1.00;0.80;;;21.30;97.80;;;;;;5001645;28;20461;-73
2023/10/22 04:53:12;;;;;;;1.03;0.77;;;21.30;97.80;;;;;;4996715;28;21767;-68
2023/10/22 04:55:39;;;;;;;0.93;0.63;;;21.30;97.80;;;;;;4997128;28;20463;-70
2023/10/22 04:58:06;;;;;;;2.50;0.80;;;21.20;97.80;;;;;;4999669;28;20478;-71
2023/10/22 05:00:33;;;;;;;1.30;0.70;;;21.30;97.80;;;;;;4998985;28;20200;-70
2023/10/22 05:03:00;;;;;;;1.20;0.67;;;21.20;97.80;;;;;;4996560;28;20486;-69
2023/10/22 05:05:27;;;;;;;0.90;0.60;;;21.30;97.90;;;;;;5003976;28;20496;-72
2023/10/22 05:07:55;;;;;;;1.03;0.70;;;21.20;97.80;;;;;;5003205;28;20462;-67
2023/10/22 05:10:21;;;;;;;0.80;0.50;;;21.20;97.90;;;;;;5003321;28;20462;-70
2023/10/22 05:12:48;;;;;;;0.90;0.60;;;21.20;97.80;;;;;;5000890;28;20450;-71
2023/10/22 05:15:16;;;;;;;0.90;0.70;;;21.20;97.90;;;;;;4995558;28;20462;-71
2023/10/22 05:17:42;;;;;;;0.90;0.60;;;21.20;97.90;;;;;;5002009;28;20486;-73
2023/10/22 05:20:10;;;;;;;1.00;0.63;;;21.20;97.90;;;;;;5002620;28;20803;-70
2023/10/22 05:22:36;;;;;;;0.90;0.63;;;21.20;97.90;;;;;;4999746;28;21407;-69
2023/10/22 05:25:05;;;;;;;0.80;0.60;;;21.20;97.90;;;;;;5001502;28;20457;-69
2023/10/22 05:27:32;;;;;;;1.00;0.63;;;21.20;97.90;;;;;;4998405;28;20458;-68
2023/10/22 05:29:59;;;;;;;0.90;0.70;;;21.20;97.90;;;;;;4998006;28;20514;-73
2023/10/22 05:32:26;;;;;;;0.90;0.63;;;21.20;98.00;;;;;;4998948;28;20475;-71
2023/10/22 05:34:52;;;;;;;0.93;0.70;;;21.10;97.90;;;;;;5000553;28;20459;-71
2023/10/22 05:37:19;;;;;;;1.13;0.90;;;21.10;97.90;;;;;;5001944;28;20921;-71
2023/10/22 05:39:47;;;;;;;0.90;0.60;;;21.20;98.00;;;;;;5001540;28;20461;-69
2023/10/22 05:42:15;;;;;;;1.10;0.70;;;21.10;98.00;;;;;;4999571;28;21215;-71
2023/10/22 05:44:41;;;;;;;0.93;0.60;;;21.20;98.00;;;;;;5000737;28;21213;-70
2023/10/22 05:47:09;;;;;;;0.90;0.70;;;21.20;98.00;;;;;;5000337;28;23476;-71
2023/10/22 05:49:36;;;;;;;1.10;0.73;;;21.20;98.00;;;;;;4999943;28;20208;-69
2023/10/22 05:52:03;;;;;;;0.90;0.60;;;21.10;98.00;;;;;;5000739;28;20218;-73
2023/10/22 05:54:30;;;;;;;1.10;0.70;;;21.10;98.00;;;;;;5000481;28;20456;-76
2023/10/22 05:56:56;;;;;;;1.10;0.70;;;21.10;98.20;;;;;;5001346;28;20479;-72
2023/10/22 05:59:24;;;;;;;1.00;0.60;;;21.10;98.20;;;;;;4997731;28;20462;-72
2023/10/22 06:01:51;;;;;;;1.40;0.70;;;21.10;98.40;;;;;;4996971;28;20796;-72
2023/10/22 06:04:18;;;;;;;1.33;0.70;;;21.10;98.40;;;;;;5000590;28;20716;-69
2023/10/22 06:06:45;;;;;;;1.10;0.77;;;21.10;98.20;;;;;;4999358;28;20462;-76
2023/10/22 06:09:12;;;;;;;1.50;0.63;;;21.20;98.20;;;;;;5000799;28;20463;-73
2023/10/22 06:11:39;;;;;;;1.92;0.60;;;21.10;98.50;;;;;;4999016;28;20295;-73
2023/10/22 06:14:06;;;;;;;0.90;0.60;;;21.10;98.30;;;;;;5004095;28;20198;-73
2023/10/22 06:16:34;;;;;;;1.10;0.80;;;21.30;98.40;;;;;;4999360;28;20470;-75
2023/10/22 06:19:01;;;;;;;0.90;0.63;;;21.10;98.30;;;;;;5000555;28;20195;-72
2023/10/22 06:21:27;;;;;;;3.00;0.70;;;21.10;98.50;;;;;;4998164;28;20200;-71
2023/10/22 06:23:54;;;;;;;1.10;0.73;;;21.10;98.60;;;;;;4999701;28;21002;-73
2023/10/22 06:26:21;;;;;;;1.50;0.83;;;21.20;98.60;;;;;;5000444;28;20455;-74
2023/10/22 06:28:49;;;;;;;1.08;0.80;;;21.20;98.80;;;;;;5000425;28;20469;-71
2023/10/22 06:31:16;;;;;;;1.00;0.70;;;21.10;98.80;;;;;;5002832;28;20206;-73
2023/10/22 06:33:44;;;;;;;0.90;0.60;;;21.20;98.90;;;;;;5003099;28;20462;-74
2023/10/22 06:36:15;;;;;;;0.90;0.60;;;21.30;99.40;;;;;;5003136;28;21016;-71
2023/10/22 06:38:42;;;;;;;1.00;0.70;;;21.20;99.20;;;;;;4999328;28;20592;-71
2023/10/22 06:41:14;;;;;;;1.00;0.70;;;21.20;99.30;;;;;;5002215;28;20473;-74
2023/10/22 06:43:41;;;;;;;1.93;0.80;;;21.30;99.70;;;;;;5003448;28;20554;-73
2023/10/22 06:46:08;;;;;;;1.00;0.70;;;21.20;99.80;;;;;;5005566;28;21384;-72
2023/10/22 06:48:34;;;;;;;3.97;0.73;;;21.30;99.90;;;;;;5001775;28;20465;-74
2023/10/22 06:51:03;;;;;;;0.90;0.63;;;21.30;99.90;;;;;;5000691;28;20469;-63
2023/10/22 06:53:30;;;;;;;1.47;1.00;;;21.30;99.90;;;;;;4926588;28;21236;-63
2023/10/22 06:55:57;;;;;;;1.20;0.80;;;21.30;99.90;;;;;;4956123;28;20478;-63
2023/10/22 06:58:24;;;;;;;3.67;0.90;;;21.30;99.90;;;;;;4998974;28;20489;-63
2023/10/22 07:00:51;;;;;;;1.10;0.60;;;21.40;99.90;;;;;;5001685;28;20460;-63
2023/10/22 07:03:18;;;;;;;1.40;0.67;;;21.40;99.90;;;;;;4999458;28;20477;-63
2023/10/22 07:05:45;;;;;;;3.17;0.70;;;21.40;99.90;;;;;;4999695;28;20465;-63
2023/10/22 07:08:15;;;;;;;1.20;0.83;;;21.30;99.90;;;;;;5001353;28;20465;-63
2023/10/22 07:10:42;;;;;;;1.00;0.70;;;21.40;99.90;;;;;;4999016;28;21002;-63
2023/10/22 07:13:09;;;;;;;1.20;0.80;;;21.40;99.90;;;;;;4999290;28;20548;-63
2023/10/22 07:15:36;;;;;;;1.50;1.00;;;21.40;99.90;;;;;;4999097;28;20462;-63
2023/10/22 07:18:03;;;;;;;1.40;0.70;;;21.40;99.90;;;;;;4999165;28;20929;-63
2023/10/22 07:20:29;;;;;;;0.90;0.60;;;21.40;99.90;;;;;;4999102;28;21651;-63
2023/10/22 07:22:58;;;;;;;0.90;0.60;;;21.40;99.90;;;;;;4995943;28;20468;-63
2023/10/22 07:25:26;;;;;;;1.10;0.70;;;21.50;99.90;;;;;;4996233;28;20467;-64
2023/10/22 07:27:53;;;;;;;2.10;0.70;;;21.40;99.90;;;;;;4999249;28;20469;-64
2023/10/22 07:30:19;;;;;;;0.90;0.60;;;21.40;99.90;;;;;;4996626;28;21501;-64
2023/10/22 07:32:46;;;;;;;4.70;0.63;;;21.50;99.90;;;;;;4994906;28;20472;-64
2023/10/22 07:35:14;;;;;;;1.60;0.70;;;21.50;99.90;;;;;;4998963;28;20816;-64
2023/10/22 07:37:44;;;;;;;2.00;0.80;;;21.50;99.90;;;;;;4999641;28;20487;-64
2023/10/22 07:40:12;;;;;;;1.57;0.70;;;21.50;99.90;;;;;;5004432;28;20467;-64
2023/10/22 07:42:41;;;;;;;1.03;0.70;;;21.50;99.90;;;;;;5002454;28;21190;-64
2023/10/22 07:45:08;;;;;;;0.90;0.70;;;21.50;99.90;;;;;;5002970;28;20469;-64
2023/10/22 07:47:36;;;;;;;1.00;0.73;;;21.50;99.90;;;;;;5003049;28;20481;-64
2023/10/22 07:50:03;;;;;;;0.90;0.60;;;21.60;99.90;;;;;;5003393;28;20604;-64
2023/10/22 07:52:31;;;;;;;1.80;0.70;;;21.60;99.90;;;;;;5003202;28;20985;-64
2023/10/22 07:54:58;;;;;;;1.20;0.63;;;21.50;99.90;;;;;;5003270;28;20729;-64
2023/10/22 07:57:26;;;;;;;1.20;0.90;;;21.60;99.90;;;;;;5002381;28;20488;-64
2023/10/22 07:59:55;;;;;;;0.90;0.63;;;21.60;99.90;;;;;;5003111;28;20465;-64
2023/10/22 08:02:21;;;;;;;1.30;0.70;;;21.60;99.90;;;;;;5000108;28;21310;-64
2023/10/22 08:04:48;;;;;;;0.90;0.60;;;21.60;99.90;;;;;;5003589;28;20465;-64
2023/10/22 08:07:17;;;;;;;0.87;0.60;;;21.60;99.90;;;;;;5004679;28;20462;-64
2023/10/22 08:09:44;;;;;;;1.30;0.70;;;21.60;99.90;;;;;;5003959;28;20462;-64
2023/10/22 08:12:11;;;;;;;0.90;0.60;;;21.60;99.90;;;;;;4998814;28;20458;-64
2023/10/22 08:14:37;;;;;;;0.83;0.60;;;21.70;99.90;;;;;;5003235;28;20491;-64
2023/10/22 08:17:06;;;;;;;0.90;0.70;;;21.60;99.90;;;;;;5000572;28;20461;-64
2023/10/22 08:19:32;;;;;;;1.80;0.70;;;21.60;99.90;;;;;;5001721;28;20466;-64
2023/10/22 08:21:59;;;;;;;2.80;0.80;;;21.60;99.90;;;;;;5005911;28;20462;-64
2023/10/22 08:24:26;;;;;;;1.30;0.80;;;21.70;99.90;;;;;;4999618;28;20549;-66
2023/10/22 08:26:54;;;;;;;1.43;1.33;;;21.60;99.80;;;;;;4998377;28;20466;-64
2023/10/22 08:29:20;;;;;;;15.90;0.97;;;21.60;99.70;;;;;;5000008;28;20606;-64
2023/10/22 08:31:47;;;;;;;1.90;0.80;;;21.60;99.70;;;;;;5002763;28;20462;-64
2023/10/22 08:34:15;;;;;;;1.57;0.70;;;21.60;99.60;;;;;;5002335;28;20459;-64
2023/10/22 08:36:41;;;;;;;0.80;0.60;;;21.60;99.60;;;;;;5001514;28;20466;-64
2023/10/22 08:39:09;;;;;;;1.50;0.90;;;21.60;99.50;;;;;;4997178;28;22173;-64
2023/10/22 08:41:44;;;;;;;1.10;0.80;;;21.60;99.30;;;;;;4998729;28;20196;-64
2023/10/22 08:44:13;;;;;;;1.10;0.70;;;21.60;99.30;;;;;;4999756;28;20454;-64
2023/10/22 08:46:40;;;;;;;1.33;0.60;;;21.60;99.30;;;;;;4998679;28;21070;-64
2023/10/22 08:49:09;;;;;;;0.90;0.70;;;21.60;99.20;;;;;;4999609;28;20467;-64
2023/10/22 08:51:37;;;;;;;0.90;0.60;;;21.60;99.10;;;;;;4997081;28;20474;-64
2023/10/22 08:54:04;;;;;;;0.90;0.70;;;21.60;99.00;;;;;;5002540;28;21405;-64
2023/10/22 08:56:32;;;;;;;1.20;0.73;;;21.70;99.10;;;;;;5003175;28;20454;-64
2023/10/22 08:59:02;;;;;;;1.00;0.80;;;21.70;99.00;;;;;;4998433;28;20513;-64
2023/10/22 09:01:28;;;;;;;1.57;0.80;;;21.70;99.00;;;;;;4998420;28;20572;-64
2023/10/22 09:03:56;;;;;;;1.00;0.70;;;21.60;98.80;;;;;;4996432;28;20454;-64
2023/10/22 09:06:23;;;;;;;1.17;0.73;;;21.70;98.80;;;;;;4997613;28;21829;-64
2023/10/22 09:08:52;;;;;;;1.13;0.70;;;21.70;98.80;;;;;;4996306;28;20475;-64
2023/10/22 09:11:20;;;;;;;1.00;0.67;;;21.70;98.70;;;;;;5000731;28;21158;-64
2023/10/22 09:13:47;;;;;;;0.90;0.60;;;21.60;98.60;;;;;;5000312;28;20470;-64
2023/10/22 09:16:31;;;;;;;1.03;0.70;;;21.60;98.50;;;;;;4999605;28;21561;-64
2023/10/22 09:19:01;;;;;;;1.10;0.70;;;21.60;98.50;;;;;;5001425;28;21355;-64
2023/10/22 09:21:41;;;;;;;1.33;0.80;;;21.70;98.50;;;;;;5001525;28;20459;-64
2023/10/22 09:24:10;;;;;;;1.10;0.80;;;21.60;98.50;;;;;;4999253;28;20968;-65
2023/10/22 09:26:46;;;;;;;1.73;0.70;;;21.60;98.40;;;;;;5000310;28;20483;-64
2023/10/22 09:29:13;;;;;;;1.07;0.80;;;21.70;98.40;;;;;;5004240;28;20498;-64
2023/10/22 09:31:49;;;;;;;0.90;0.70;;;21.60;98.30;;;;;;5001366;28;20476;-65
2023/10/22 09:34:25;;;;;;;1.17;0.80;;;21.60;98.30;;;;;;5001936;28;20490;-64
2023/10/22 09:36:53;;;;;;;3.43;0.70;;;21.60;98.30;;;;;;4999245;28;20454;-64
2023/10/22 09:39:33;;;;;;;1.00;0.80;;;21.60;98.40;;;;;;5001577;28;20475;-64
2023/10/22 09:42:01;;;;;;;7.03;1.20;;;21.70;98.70;;;;;;4999977;28;21358;-64
2023/10/22 09:44:28;;;;;;;1.20;0.80;;;21.60;98.70;;;;;;4994447;28;20588;-65
2023/10/22 09:46:55;;;;;;;1.13;0.93;;;21.80;99.00;;;;;;4998423;28;20896;-67
2023/10/22 09:49:23;;;;;;;1.80;0.83;;;21.70;99.30;;;;;;4999402;28;20463;-66
2023/10/22 09:51:52;;;;;;;2.70;0.80;;;21.70;99.00;;;;;;4998313;28;20467;-67
2023/10/22 09:54:22;;;;;;;1.87;0.80;;;21.80;99.00;;;;;;5001457;28;22456;-68
2023/10/22 09:56:52;;;;;;;2.10;0.90;;;21.80;98.90;;;;;;4999232;28;20546;-66
2023/10/22 09:59:22;;;;;;;2.40;0.90;;;22.00;98.90;;;;;;5001173;28;20477;-66
2023/10/22 10:01:49;;;;;;;2.43;0.77;;;21.90;98.80;;;;;;4997848;28;20503;-66
2023/10/22 10:04:17;;;;;;;1.20;0.70;;;22.00;98.80;;;;;;4999892;28;20820;-67
2023/10/22 10:06:45;;;;;;;1.00;0.80;;;22.00;98.80;;;;;;5000932;28;20458;-66
2023/10/22 10:09:12;;;;;;;1.40;0.83;;;22.10;98.90;;;;;;5001076;28;20470;-67
2023/10/22 10:11:40;;;;;;;2.30;0.90;;;22.30;98.80;;;;;;4998490;28;20892;-67
2023/10/22 10:14:34;;;;;;;2.73;0.83;;;22.20;98.70;;;;;;4999530;28;20454;-67
2023/10/22 10:17:01;;;;;;;1.30;0.90;;;22.30;98.70;;;;;;4996991;28;20460;-66
2023/10/22 10:19:28;;;;;;;4.37;0.87;;;22.30;98.60;;;;;;4995134;28;20592;-68
2023/10/22 10:21:55;;;;;;;1.30;0.70;;;22.30;98.60;;;;;;4994334;28;20455;-67
2023/10/22 10:24:24;;;;;;;3.00;0.80;;;22.40;98.60;;;;;;4997000;28;20463;-66
2023/10/22 10:26:52;;;;;;;1.80;0.70;;;22.40;98.60;;;;;;4996726;28;21410;-68
2023/10/22 10:29:23;;;;;;;1.93;0.80;;;22.50;98.50;;;;;;5001568;28;20473;-67
2023/10/22 10:31:51;;;;;;;1.00;0.80;;;22.50;98.50;;;;;;4993685;28;20461;-66
2023/10/22 10:34:22;;;;;;;1.50;0.70;;;22.50;98.50;;;;;;4999411;28;20561;-72
2023/10/22 10:36:50;;;;;;;1.00;0.60;;;22.50;98.40;;;;;;4997962;28;21007;-70
2023/10/22 10:39:37;;;;;;;2.13;0.90;;;22.50;98.60;;;;;;4998916;28;20612;-71
2023/10/22 10:42:04;;;;;;;1.10;0.70;;;22.60;98.70;;;;;;4995794;28;20454;-69
2023/10/22 10:44:33;;;;;;;2.10;0.87;;;22.60;98.60;;;;;;4999345;28;21302;-71
2023/10/22 10:47:34;;;;;;;1.67;1.10;;;22.70;98.70;;;;;;5000443;28;20867;-69
2023/10/22 10:50:03;;;;;;;1.13;0.90;;;22.70;98.70;;;;;;4921690;28;20481;-69
2023/10/22 10:52:31;;;;;;;2.13;0.83;;;22.70;98.70;;;;;;4921504;28;20447;-68
2023/10/22 10:55:07;;;;;;;2.60;0.70;;;22.70;98.70;;;;;;4954885;28;20580;-70
2023/10/22 10:57:35;;;;;;;1.00;0.67;;;22.70;98.70;;;;;;5002019;28;20454;-68
2023/10/22 11:00:05;;;;;;;2.00;0.80;;;22.80;99.10;;;;;;4999685;28;20624;-69
2023/10/22 11:02:41;;;;;;;1.27;0.70;;;22.80;98.70;;;;;;5001488;28;20590;-69
2023/10/22 11:05:08;;;;;;;2.40;0.93;;;22.80;98.70;;;;;;5002183;28;20521;-64
2023/10/22 11:07:35;;;;;;;1.97;0.80;;;22.90;98.70;;;;;;5007558;28;20459;-68
2023/10/22 11:10:09;;;;;;;6.93;1.07;;;22.90;99.00;;;;;;5002117;28;20474;-70
2023/10/22 11:12:36;;;;;;;17.13;1.20;;;22.90;99.00;;;;;;5004217;28;20582;-76
2023/10/22 11:15:05;;;;;;;1.30;0.80;;;22.90;99.00;;;;;;5003997;28;20466;-70
2023/10/22 11:17:32;;;;;;;4.80;0.80;;;22.90;99.00;;;;;;5003909;28;20469;-68
2023/10/22 11:19:59;;;;;;;5.07;1.10;;;22.90;98.90;;;;;;4998972;28;20485;-67
2023/10/22 11:22:25;;;;;;;1.57;0.93;;;23.00;99.20;;;;;;5006007;28;20458;-67
2023/10/22 11:24:53;;;;;;;3.03;0.80;;;23.00;98.80;;;;;;5000229;28;20603;-65
2023/10/22 11:27:20;;;;;;;1.33;0.70;;;23.00;98.10;;;;;;4996353;28;20478;-68
2023/10/22 11:29:48;;;;;;;1.27;1.07;;;23.00;97.70;;;;;;4997336;28;20480;-67
2023/10/22 11:32:17;;;;;;;2.20;1.07;;;23.00;97.20;;;;;;4996605;28;20476;-67
2023/10/22 11:34:47;;;;;;;3.23;1.00;;;22.90;97.10;;;;;;5001898;28;20459;-68
2023/10/22 11:37:14;;;;;;;2.50;0.80;;;22.90;97.10;;;;;;5004713;28;20447;-66
2023/10/22 11:39:42;;;;;;;2.53;1.00;;;22.90;97.10;;;;;;5004495;28;20486;-67
2023/10/22 11:42:10;;;;;;;1.70;0.90;;;22.90;97.20;;;;;;5001439;28;20699;-65
2023/10/22 11:44:39;;;;;;;1.40;0.90;;;22.90;96.90;;;;;;5004998;28;20469;-65
2023/10/22 11:47:25;;;;;;;2.23;0.87;;;22.90;96.90;;;;;;5005349;28;20473;-66
2023/10/22 11:49:52;;;;;;;1.93;1.33;;;22.90;96.80;;;;;;5004558;28;20997;-67
2023/10/22 11:52:34;;;;;;;2.13;1.10;;;22.90;96.80;;;;;;5002798;28;20471;-69
2023/10/22 11:55:00;;;;;;;2.50;1.23;;;22.90;96.90;;;;;;5004628;28;21401;-66
2023/10/22 11:57:27;;;;;;;2.37;1.73;;;22.90;96.90;;;;;;5004827;28;20446;-65
2023/10/22 11:59:54;;;;;;;3.93;1.37;;;22.80;97.00;;;;;;5005447;28;20478;-66
2023/10/22 12:02:21;;;;;;;2.27;1.50;;;22.90;97.10;;;;;;5004006;28;20495;-65
2023/10/22 12:04:49;;;;;;;3.20;1.20;;;22.90;96.90;;;;;;4997820;28;20458;-70
2023/10/22 12:07:16;;;;;;;2.97;0.90;;;22.90;96.90;;;;;;5005369;28;20461;-67
2023/10/22 12:09:44;;;;;;;2.23;0.90;;;22.90;97.10;;;;;;5005080;28;20462;-68
2023/10/22 12:12:10;;;;;;;2.90;0.97;;;22.80;97.20;;;;;;5003135;28;20509;-69
2023/10/22 12:14:39;;;;;;;6.53;1.20;;;22.90;97.20;;;;;;5002428;28;20467;-71
2023/10/22 12:17:06;;;;;;;1.83;1.07;;;22.90;97.70;;;;;;5002423;28;20810;-68
2023/10/22 12:19:32;;;;;;;1.10;0.80;;;22.90;97.30;;;;;;5003459;28;20482;-72
2023/10/22 12:22:01;;;;;;;2.50;0.93;;;22.90;97.40;;;;;;5001455;28;20460;-70
2023/10/22 12:24:27;;;;;;;1.30;0.80;;;23.00;97.40;;;;;;5001176;28;20460;-65
2023/10/22 12:26:54;;;;;;;2.27;0.80;;;23.00;97.40;;;;;;4998913;28;20474;-65
2023/10/22 12:29:21;;;;;;;2.23;0.80;;;23.00;97.50;;;;;;5002644;28;20459;-72
2023/10/22 12:31:48;;;;;;;2.93;1.00;;;23.00;97.40;;;;;;5003213;28;20459;-75
2023/10/22 12:34:15;;;;;;;2.40;0.90;;;23.00;97.50;;;;;;5006444;28;20878;-73
2023/10/22 12:36:41;;;;;;;2.17;0.80;;;23.00;97.20;;;;;;5001571;28;20455;-75
2023/10/22 12:39:10;;;;;;;1.10;0.90;;;23.00;96.30;;;;;;4999002;28;20472;-81
2023/10/22 12:41:36;;;;;;;3.83;1.23;;;23.00;96.20;;;;;;5000582;28;20930;-75
2023/10/22 12:44:04;;;;;;;2.30;1.00;;;23.00;96.60;;;;;;5008212;28;21083;-77
2023/10/22 12:46:31;;;;;;;2.00;1.10;;;23.00;96.60;;;;;;5009909;28;20526;-71
2023/10/22 12:48:59;;;;;;;1.63;1.10;;;23.00;96.70;;;;;;5004789;28;20477;-72
2023/10/22 12:51:26;;;;;;;2.67;0.90;;;23.10;96.80;;;;;;5004369;28;20472;-71